createdAt,value
2019-01-12T00:00:17.402Z,99818.00
2019-01-12T00:02:46.090Z,99815.94
2019-01-12T00:05:14.779Z,99811.69
2019-01-12T00:07:43.948Z,99817.99
2019-01-12T00:10:12.623Z,99820.49
2019-01-12T00:12:41.306Z,99832.69
2019-01-12T00:15:10.071Z,99818.99
2019-01-12T00:17:38.755Z,99826.28
2019-01-12T00:20:08.941Z,99826.28
2019-01-12T00:22:37.768Z,99817.58
2019-01-12T00:25:08.170Z,99817.58
2019-01-12T00:27:36.847Z,99819.20
2019-01-12T00:30:11.283Z,99827.11
2019-01-12T00:32:39.966Z,99838.12
2019-01-12T00:35:08.842Z,99837.71
2019-01-12T00:37:39.186Z,99827.38
2019-01-12T00:40:09.264Z,99826.13
2019-01-12T00:42:37.945Z,99832.95
2019-01-12T00:45:12.083Z,99827.77
2019-01-12T00:47:40.766Z,99817.16
2019-01-12T00:50:12.125Z,99820.59
2019-01-12T00:52:40.795Z,99820.59
2019-01-12T00:55:09.824Z,99824.83
2019-01-12T00:57:38.503Z,99824.83
2019-01-12T01:00:19.171Z,99815.45
2019-01-12T01:02:47.955Z,99822.38
2019-01-12T01:05:16.736Z,99819.07
2019-01-12T01:07:45.623Z,99816.13
2019-01-12T01:10:17.208Z,99816.13
2019-01-12T01:12:45.881Z,99808.48
2019-01-12T01:15:14.824Z,99806.43
2019-01-12T01:17:43.704Z,99800.63
2019-01-12T01:20:17.234Z,99796.17
2019-01-12T01:22:46.089Z,99796.17
2019-01-12T01:25:14.875Z,99803.69
2019-01-12T01:27:43.564Z,99804.56
2019-01-12T01:30:15.508Z,99791.44
2019-01-12T01:32:44.197Z,99797.45
2019-01-12T01:35:12.870Z,99784.69
2019-01-12T01:37:41.682Z,99784.69
2019-01-12T01:40:13.063Z,99790.05
2019-01-12T01:42:41.744Z,99785.98
2019-01-12T01:45:13.262Z,99779.93
2019-01-12T01:47:41.950Z,99770.81
2019-01-12T01:50:12.735Z,99768.14
2019-01-12T01:52:41.564Z,99772.80
2019-01-12T01:55:10.413Z,99785.68
2019-01-12T01:57:39.103Z,99775.48
2019-01-12T02:00:14.054Z,99771.25
2019-01-12T02:02:42.736Z,99778.92
2019-01-12T02:05:11.417Z,99778.92
2019-01-12T02:07:40.169Z,99780.06
2019-01-12T02:10:11.764Z,99778.95
2019-01-12T02:12:40.540Z,99765.01
2019-01-12T02:15:12.065Z,99765.01
2019-01-12T02:17:40.748Z,99754.67
2019-01-12T02:20:10.197Z,99760.51
2019-01-12T02:22:39.191Z,99760.51
2019-01-12T02:25:10.072Z,99750.20
2019-01-12T02:27:38.750Z,99744.41
2019-01-12T02:30:10.382Z,99745.23
2019-01-12T02:32:39.065Z,99749.55
2019-01-12T02:35:07.748Z,99746.11
2019-01-12T02:37:36.671Z,99746.73
2019-01-12T02:40:07.956Z,99746.33
2019-01-12T02:42:36.634Z,99742.40
2019-01-12T02:45:08.316Z,99741.14
2019-01-12T02:47:37.002Z,99741.02
2019-01-12T02:50:08.492Z,99738.45
2019-01-12T02:52:37.233Z,99726.02
2019-01-12T02:55:08.941Z,99726.53
2019-01-12T02:57:37.320Z,99724.38
2019-01-12T03:00:14.830Z,99726.18
2019-01-12T03:02:43.557Z,99726.18
2019-01-12T03:05:12.391Z,99726.39
2019-01-12T03:07:41.604Z,99716.62
2019-01-12T03:10:12.787Z,99708.64
2019-01-12T03:12:41.476Z,99708.12
2019-01-12T03:15:12.876Z,99706.16
2019-01-12T03:17:41.572Z,99692.27
2019-01-12T03:20:13.360Z,99692.27
2019-01-12T03:22:42.297Z,99679.43
2019-01-12T03:25:17.556Z,99679.43
2019-01-12T03:27:41.667Z,99683.61
2019-01-12T03:30:15.836Z,99683.61
2019-01-12T03:32:44.520Z,99680.96
2019-01-12T03:35:13.608Z,99669.36
2019-01-12T03:37:42.365Z,99669.36
2019-01-12T03:40:17.923Z,99673.47
2019-01-12T03:42:46.594Z,99668.30
2019-01-12T03:45:17.442Z,99668.48
2019-01-12T03:47:46.115Z,99661.23
2019-01-12T03:50:16.303Z,99641.78
2019-01-12T03:52:45.138Z,99650.16
2019-01-12T03:55:13.927Z,99665.75
2019-01-12T03:57:42.610Z,99657.91
2019-01-12T04:00:14.500Z,99663.98
2019-01-12T04:02:43.174Z,99663.98
2019-01-12T04:05:11.855Z,99675.28
2019-01-12T04:07:40.586Z,99674.39
2019-01-12T04:10:11.777Z,99687.69
2019-01-12T04:12:40.458Z,99695.27
2019-01-12T04:15:11.714Z,99700.11
2019-01-12T04:17:40.393Z,99698.84
2019-01-12T04:20:12.015Z,99697.22
2019-01-12T04:22:40.749Z,99702.97
2019-01-12T04:25:09.633Z,99699.45
2019-01-12T04:27:38.308Z,99703.39
2019-01-12T04:30:10.625Z,99709.49
2019-01-12T04:32:39.314Z,99714.78
2019-01-12T04:35:08.392Z,99710.67
2019-01-12T04:37:37.214Z,99708.12
2019-01-12T04:40:08.809Z,99706.25
2019-01-12T04:42:37.490Z,99704.87
2019-01-12T04:45:08.739Z,99711.06
2019-01-12T04:47:37.423Z,99704.97
2019-01-12T04:50:11.969Z,99709.10
2019-01-12T04:52:40.726Z,99708.12
2019-01-12T04:55:09.514Z,99703.09
2019-01-12T04:57:38.194Z,99709.10
2019-01-12T05:00:09.947Z,99715.50
2019-01-12T05:02:38.637Z,99722.28
2019-01-12T05:05:07.414Z,99723.73
2019-01-12T05:07:36.181Z,99712.16
2019-01-12T05:10:07.649Z,99709.39
2019-01-12T05:12:36.329Z,99699.94
2019-01-12T05:15:07.775Z,99695.19
2019-01-12T05:17:36.467Z,99692.20
2019-01-12T05:20:08.050Z,99692.59
2019-01-12T05:22:36.819Z,99696.71
2019-01-12T05:25:06.498Z,99696.71
2019-01-12T05:27:35.175Z,99695.44
2019-01-12T05:30:07.077Z,99696.73
2019-01-12T05:32:35.754Z,99698.44
2019-01-12T05:35:05.151Z,99692.34
2019-01-12T05:37:34.010Z,99696.45
2019-01-12T05:40:02.692Z,99700.29
2019-01-12T05:42:31.375Z,99695.59
2019-01-12T05:45:00.194Z,99688.52
2019-01-12T05:47:28.874Z,99683.05
2019-01-12T05:49:57.554Z,99701.21
2019-01-12T05:52:26.299Z,99697.78
2019-01-12T05:54:54.991Z,99710.30
2019-01-12T05:57:23.687Z,99710.30
2019-01-12T05:59:52.527Z,99702.25
2019-01-12T06:02:21.217Z,99702.25
2019-01-12T06:04:49.908Z,99695.36
2019-01-12T06:07:18.857Z,99704.11
2019-01-12T06:09:47.532Z,99704.11
2019-01-12T06:12:16.224Z,99701.55
2019-01-12T06:14:44.942Z,99703.50
2019-01-12T06:17:13.630Z,99716.08
2019-01-12T06:19:42.309Z,99728.69
2019-01-12T06:22:11.472Z,99728.69
2019-01-12T06:24:40.160Z,99734.87
2019-01-12T06:27:08.922Z,99711.78
2019-01-12T06:29:38.022Z,99711.78
2019-01-12T06:32:06.710Z,99736.83
2019-01-12T06:34:35.397Z,99736.83
2019-01-12T06:37:04.579Z,99741.04
2019-01-12T06:39:33.264Z,99733.84
2019-01-12T06:42:01.881Z,99739.01
2019-01-12T06:44:31.043Z,99727.20
2019-01-12T06:46:59.719Z,99727.20
2019-01-12T06:49:28.404Z,99726.73
2019-01-12T06:51:57.250Z,99719.50
2019-01-12T06:54:25.931Z,99709.53
2019-01-12T06:56:56.108Z,99718.48
2019-01-12T06:59:24.884Z,99721.27
2019-01-12T07:01:53.588Z,99721.27
2019-01-12T07:04:22.266Z,99715.79
2019-01-12T07:06:51.008Z,99708.40
2019-01-12T07:09:19.697Z,99708.62
2019-01-12T07:11:48.380Z,99710.80
2019-01-12T07:14:17.533Z,99718.49
2019-01-12T07:16:46.223Z,99724.01
2019-01-12T07:19:14.910Z,99718.01
2019-01-12T07:21:43.763Z,99729.66
2019-01-12T07:24:12.456Z,99730.16
2019-01-12T07:26:41.139Z,99742.53
2019-01-12T07:29:10.259Z,99741.34
2019-01-12T07:31:38.941Z,99740.91
2019-01-12T07:34:07.630Z,99738.05
2019-01-12T07:36:36.461Z,99734.16
2019-01-12T07:39:07.332Z,99725.88
2019-01-12T07:41:36.002Z,99716.13
2019-01-12T07:44:06.247Z,99714.77
2019-01-12T07:46:34.918Z,99712.34
2019-01-12T07:49:03.615Z,99721.42
2019-01-12T07:51:32.440Z,99727.05
2019-01-12T07:54:01.123Z,99721.20
2019-01-12T07:56:29.802Z,99715.28
2019-01-12T07:58:59.304Z,99713.34
2019-01-12T08:01:27.993Z,99693.98
2019-01-12T08:03:56.677Z,99709.63
2019-01-12T08:06:25.503Z,99721.75
2019-01-12T08:08:54.190Z,99720.72
2019-01-12T08:11:22.876Z,99718.09
2019-01-12T08:13:51.636Z,99708.95
2019-01-12T08:16:20.321Z,99704.56
2019-01-12T08:18:49.015Z,99704.56
2019-01-12T08:21:17.727Z,99706.77
2019-01-12T08:23:46.409Z,99713.92
2019-01-12T08:26:15.013Z,99713.92
2019-01-12T08:28:43.728Z,99706.71
2019-01-12T08:31:12.451Z,99706.71
2019-01-12T08:33:41.121Z,99708.37
2019-01-12T08:36:09.933Z,99718.22
2019-01-12T08:38:38.611Z,99714.69
2019-01-12T08:41:07.294Z,99705.45
2019-01-12T08:43:36.039Z,99699.04
2019-01-12T08:46:04.943Z,99706.69
2019-01-12T08:48:33.604Z,99694.98
2019-01-12T08:51:02.323Z,99687.50
2019-01-12T08:53:31.003Z,99674.94
2019-01-12T08:55:59.684Z,99668.63
2019-01-12T08:58:28.436Z,99667.16
2019-01-12T09:00:57.106Z,99656.13
2019-01-12T09:03:25.911Z,99641.84
2019-01-12T09:05:54.635Z,99636.08
2019-01-12T09:08:23.325Z,99628.31
2019-01-12T09:10:52.007Z,99622.58
2019-01-12T09:13:20.834Z,99619.23
2019-01-12T09:15:49.505Z,99612.77
2019-01-12T09:18:18.199Z,99612.59
2019-01-12T09:20:47.224Z,99602.36
2019-01-12T09:23:15.903Z,99600.21
2019-01-12T09:25:44.579Z,99593.97
2019-01-12T09:28:13.315Z,99584.01
2019-01-12T09:30:48.316Z,99585.86
2019-01-12T09:33:12.401Z,99588.07
2019-01-12T09:35:41.413Z,99585.03
2019-01-12T09:38:10.115Z,99582.67
2019-01-12T09:40:38.799Z,99573.64
2019-01-12T09:43:07.531Z,99572.36
2019-01-12T09:45:36.206Z,99576.16
2019-01-12T10:23:05.624Z,99489.28
2019-01-12T10:25:34.304Z,99488.50
2019-01-12T10:28:10.857Z,99484.08
2019-01-12T10:30:39.614Z,99476.06
2019-01-12T10:33:08.350Z,99476.02
2019-01-12T10:35:37.062Z,99474.39
2019-01-12T10:38:05.839Z,99472.84
2019-01-12T10:40:34.562Z,99466.39
2019-01-12T10:43:03.394Z,99460.36
2019-01-12T10:45:32.071Z,99462.19
2019-01-12T10:48:00.767Z,99468.16
2019-01-12T10:50:31.577Z,99459.94
2019-01-12T10:53:00.264Z,99456.55
2019-01-12T10:55:28.938Z,99450.34
2019-01-12T10:57:57.972Z,99454.67
2019-01-12T11:00:32.082Z,99447.67
2019-01-12T11:03:00.732Z,99443.58
2019-01-12T11:05:29.488Z,99443.47
2019-01-12T11:07:58.164Z,99436.45
2019-01-12T11:10:26.846Z,99429.77
2019-01-12T11:12:57.072Z,99421.06
2019-01-12T11:15:25.762Z,99421.56
2019-01-12T11:17:54.453Z,99421.58
2019-01-12T11:20:23.167Z,99417.94
2019-01-12T11:22:52.043Z,99409.56
2019-01-12T11:25:20.721Z,99412.76
2019-01-12T11:27:49.563Z,99406.88
2019-01-12T11:30:20.457Z,99399.24
2019-01-12T11:32:49.347Z,99393.52
2019-01-12T11:35:18.116Z,99404.63
2019-01-12T11:37:46.805Z,99390.85
2019-01-12T11:40:20.672Z,99388.85
2019-01-12T11:42:50.771Z,99390.80
2019-01-12T11:45:20.055Z,99395.77
2019-01-12T11:47:49.333Z,99391.03
2019-01-12T11:50:18.768Z,99385.50
2019-01-12T11:52:47.546Z,99386.16
2019-01-12T11:55:20.383Z,99371.50
2019-01-12T11:57:49.228Z,99358.50
2019-01-12T12:00:25.644Z,99362.73
2019-01-12T12:02:54.594Z,99353.56
2019-01-12T12:05:23.362Z,99359.21
2019-01-12T12:07:52.600Z,99359.75
2019-01-12T12:10:22.455Z,99370.20
2019-01-12T12:12:51.153Z,99373.80
2019-01-12T12:15:21.438Z,99372.02
2019-01-12T12:17:52.062Z,99364.78
2019-01-12T12:20:25.326Z,99366.59
2019-01-12T12:22:54.184Z,99368.16
2019-01-12T12:25:22.900Z,99368.66
2019-01-12T12:27:51.578Z,99362.73
2019-01-12T12:30:25.659Z,99347.46
2019-01-12T12:32:54.717Z,99352.02
2019-01-12T12:35:24.973Z,99349.73
2019-01-12T12:37:54.470Z,99351.57
2019-01-12T12:40:24.964Z,99341.05
2019-01-12T12:42:55.250Z,99346.69
2019-01-12T12:45:27.065Z,99332.75
2019-01-12T12:47:56.558Z,99335.40
2019-01-12T12:50:25.327Z,99341.06
2019-01-12T12:52:54.027Z,99334.05
2019-01-12T12:55:22.884Z,99336.70
2019-01-12T12:57:51.584Z,99336.48
2019-01-12T13:00:22.904Z,99332.55
2019-01-12T13:02:51.693Z,99325.81
2019-01-12T13:05:20.467Z,99331.49
2019-01-12T13:07:49.281Z,99333.91
2019-01-12T13:10:20.666Z,99330.05
2019-01-12T13:12:49.353Z,99332.76
2019-01-12T13:15:18.138Z,99333.05
2019-01-12T13:17:46.839Z,99329.53
2019-01-12T13:20:17.819Z,99329.36
2019-01-12T13:22:46.797Z,99326.22
2019-01-12T13:25:16.132Z,99326.80
2019-01-12T13:27:44.825Z,99323.16
2019-01-12T13:30:24.818Z,99312.25
2019-01-12T13:32:53.599Z,99310.47
2019-01-12T13:35:22.278Z,99313.55
2019-01-12T13:37:51.998Z,99313.58
2019-01-12T13:40:25.386Z,99315.15
2019-01-12T13:42:54.058Z,99312.58
2019-01-12T13:45:23.207Z,99308.39
2019-01-12T13:47:51.882Z,99307.84
2019-01-12T13:50:23.055Z,99306.58
2019-01-12T13:52:52.185Z,99302.98
2019-01-12T13:55:20.957Z,99302.77
2019-01-12T13:57:50.135Z,99309.02
2019-01-12T14:00:30.300Z,99305.07
2019-01-12T14:03:01.573Z,99301.47
2019-01-12T14:05:30.440Z,99301.33
2019-01-12T14:07:59.572Z,99306.02
2019-01-12T14:10:28.294Z,99304.23
2019-01-12T14:12:56.970Z,99297.82
2019-01-12T14:15:26.319Z,99300.66
2019-01-12T14:17:55.005Z,99299.12
2019-01-12T14:20:28.990Z,99293.70
2019-01-12T14:22:57.723Z,99302.25
2019-01-12T14:25:27.187Z,99297.58
2019-01-12T14:27:56.061Z,99300.92
2019-01-12T14:30:24.916Z,99289.79
2019-01-12T14:32:53.595Z,99293.12
2019-01-12T14:35:22.273Z,99285.28
2019-01-12T14:37:51.301Z,99290.92
2019-01-12T14:40:20.885Z,99296.76
2019-01-12T14:42:49.584Z,99305.78
2019-01-12T14:45:26.654Z,99301.09
2019-01-12T14:47:55.538Z,99306.20
2019-01-12T14:50:24.223Z,99299.86
2019-01-12T14:52:52.937Z,99301.08
2019-01-12T14:55:22.913Z,99306.20
2019-01-12T14:57:51.707Z,99299.68
2019-01-12T15:00:22.558Z,99298.77
2019-01-12T15:02:51.220Z,99304.48
2019-01-12T15:05:21.703Z,99306.72
2019-01-12T15:07:50.536Z,99307.50
2019-01-12T15:10:20.772Z,99307.47
2019-01-12T15:12:50.176Z,99319.74
2019-01-12T15:15:20.127Z,99316.83
2019-01-12T15:17:49.001Z,99313.52
2019-01-12T15:20:22.505Z,99320.09
2019-01-12T15:22:51.679Z,99320.52
2019-01-12T15:25:20.776Z,99321.83
2019-01-12T15:27:49.560Z,99318.44
2019-01-12T15:30:20.796Z,99315.27
2019-01-12T15:32:49.462Z,99321.50
2019-01-12T15:35:18.855Z,99320.86
2019-01-12T15:37:47.956Z,99323.16
2019-01-12T15:40:19.077Z,99321.34
2019-01-12T15:42:47.751Z,99323.24
2019-01-12T15:45:19.140Z,99326.10
2019-01-12T15:47:47.825Z,99323.34
2019-01-12T15:50:19.082Z,99319.52
2019-01-12T15:52:47.824Z,99323.53
2019-01-12T15:55:16.574Z,99323.53
2019-01-12T15:57:56.878Z,99321.34
2019-01-12T16:00:27.831Z,99321.34
2019-01-12T16:02:56.527Z,99323.61
2019-01-12T16:05:25.370Z,99323.61
2019-01-12T16:07:54.058Z,99325.64
2019-01-12T16:10:22.667Z,99327.53
2019-01-12T16:12:51.407Z,99327.36
2019-01-12T16:15:24.944Z,99323.92
2019-01-12T16:17:53.831Z,99323.92
2019-01-12T16:20:25.399Z,99331.93
2019-01-12T16:22:54.074Z,99322.09
2019-01-12T16:25:22.747Z,99332.61
2019-01-12T16:27:51.655Z,99333.61
2019-01-12T16:30:21.331Z,99335.06
2019-01-12T16:32:50.110Z,99340.56
2019-01-12T16:35:19.235Z,99338.06
2019-01-12T16:37:47.933Z,99336.56
2019-01-12T16:40:21.966Z,99344.33
2019-01-12T16:42:50.710Z,99350.67
2019-01-12T16:45:19.689Z,99355.92
2019-01-12T16:47:48.483Z,99354.80
2019-01-12T16:50:17.840Z,99349.52
2019-01-12T16:52:46.533Z,99360.39
2019-01-12T16:55:16.817Z,99360.60
2019-01-12T16:57:45.943Z,99360.02
2019-01-12T17:00:20.082Z,99365.70
2019-01-12T17:02:48.770Z,99358.93
2019-01-12T17:05:17.638Z,99361.33
2019-01-12T17:07:47.482Z,99362.70
2019-01-12T17:10:21.744Z,99358.02
2019-01-12T17:12:50.577Z,99356.47
2019-01-12T17:15:21.260Z,99360.20
2019-01-12T17:17:49.940Z,99353.81
2019-01-12T17:20:24.315Z,99365.64
2019-01-12T17:22:54.991Z,99371.99
2019-01-12T17:25:23.676Z,99363.69
2019-01-12T17:27:52.507Z,99370.28
2019-01-12T17:30:23.869Z,99365.93
2019-01-12T17:32:52.553Z,99369.09
2019-01-12T17:35:21.370Z,99369.50
2019-01-12T17:37:50.043Z,99366.72
2019-01-12T17:40:18.728Z,99374.69
2019-01-12T17:42:47.446Z,99371.77
2019-01-12T17:45:18.230Z,99372.13
2019-01-12T17:47:46.905Z,99367.92
2019-01-12T17:50:17.922Z,99373.38
2019-01-12T17:52:46.698Z,99381.73
2019-01-12T17:55:17.945Z,99380.05
2019-01-12T17:57:46.761Z,99380.05
2019-01-12T18:00:34.488Z,99387.84
2019-01-12T18:03:03.235Z,99392.49
2019-01-12T18:05:31.919Z,99392.49
2019-01-12T18:08:00.616Z,99381.42
2019-01-12T18:10:29.334Z,99391.02
2019-01-12T18:12:59.615Z,99392.59
2019-01-12T18:15:28.292Z,99390.66
2019-01-12T18:17:57.019Z,99383.89
2019-01-12T18:20:25.700Z,99390.82
2019-01-12T18:22:54.386Z,99387.89
2019-01-12T18:25:23.195Z,99391.74
2019-01-12T18:27:51.887Z,99391.74
2019-01-12T18:30:22.837Z,99403.59
2019-01-12T18:32:51.587Z,99392.22
2019-01-12T18:35:20.367Z,99392.22
2019-01-12T18:37:49.050Z,99393.74
2019-01-12T18:40:19.389Z,99399.62
2019-01-12T18:42:48.068Z,99399.62
2019-01-12T18:45:18.745Z,99405.36
2019-01-12T18:47:47.503Z,99413.11
2019-01-12T18:50:19.024Z,99420.32
2019-01-12T18:52:47.922Z,99420.32
2019-01-12T18:55:17.053Z,99424.06
2019-01-12T18:57:45.749Z,99421.13
2019-01-12T19:00:23.470Z,99422.58
2019-01-12T19:02:52.164Z,99421.42
2019-01-12T19:05:20.837Z,99419.18
2019-01-12T19:07:49.654Z,99427.11
2019-01-12T19:10:18.345Z,99420.45
2019-01-12T19:12:47.028Z,99426.94
2019-01-12T19:15:27.163Z,99436.77
2019-01-12T19:17:55.950Z,99436.19
2019-01-12T19:20:24.740Z,99440.17
2019-01-12T19:22:53.959Z,99441.13
2019-01-12T19:25:22.652Z,99435.70
2019-01-12T19:27:51.321Z,99441.08
2019-01-12T19:30:22.195Z,99426.41
2019-01-12T19:32:50.983Z,99441.40
2019-01-12T19:35:19.659Z,99440.11
2019-01-12T19:37:48.718Z,99435.83
2019-01-12T19:40:22.143Z,99435.83
2019-01-12T19:42:50.825Z,99437.78
2019-01-12T19:45:19.603Z,99448.48
2019-01-12T19:47:48.210Z,99430.13
2019-01-12T19:50:19.197Z,99430.13
2019-01-12T19:52:48.074Z,99428.00
2019-01-12T19:55:16.936Z,99428.73
2019-01-12T19:57:45.644Z,99431.86
2019-01-12T20:00:22.930Z,99447.98
2019-01-12T20:02:51.622Z,99429.23
2019-01-12T20:05:20.305Z,99434.86
2019-01-12T20:07:50.419Z,99424.58
2019-01-12T20:10:19.903Z,99427.92
2019-01-12T20:12:48.591Z,99422.57
2019-01-12T20:15:20.068Z,99420.78
2019-01-12T20:17:48.729Z,99429.58
2019-01-12T20:20:17.723Z,99426.56
2019-01-12T20:22:46.533Z,99429.13
2019-01-12T20:25:20.635Z,99428.23
2019-01-12T20:27:49.315Z,99431.07
2019-01-12T20:30:46.907Z,99431.07
2019-01-12T20:33:27.300Z,99432.52
2019-01-12T20:36:29.168Z,99439.72
2019-01-12T20:39:18.664Z,99439.72
2019-01-12T20:42:02.215Z,99434.36
2019-01-12T20:44:50.003Z,99436.50
2019-01-12T20:47:22.043Z,99425.42
2019-01-12T20:49:53.640Z,99420.45
2019-01-12T20:52:25.348Z,99423.70
2019-01-12T20:55:15.049Z,99417.98
2019-01-12T20:57:52.806Z,99417.98
2019-01-12T21:00:56.343Z,99425.25
2019-01-12T21:03:43.558Z,99426.98
2019-01-12T21:06:15.155Z,99430.27
2019-01-12T21:08:52.783Z,99422.94
2019-01-12T21:11:33.135Z,99424.61
2019-01-12T21:14:04.912Z,99425.17
2019-01-12T21:16:34.686Z,99421.28
2019-01-12T21:19:03.375Z,99418.88
2019-01-12T21:21:32.217Z,99418.95
2019-01-12T21:24:00.895Z,99418.95
2019-01-12T21:26:29.757Z,99418.44
2019-01-12T21:28:58.468Z,99412.03
2019-01-12T21:31:27.244Z,99408.69
2019-01-12T21:33:55.929Z,99418.36
2019-01-12T21:36:25.036Z,99413.39
2019-01-12T21:38:53.693Z,99414.07
2019-01-12T21:41:22.977Z,99417.16
2019-01-12T21:43:51.823Z,99412.74
2019-01-12T21:46:20.593Z,99407.66
2019-01-12T21:48:50.533Z,99405.02
2019-01-12T21:51:19.503Z,99412.33
2019-01-12T21:53:48.193Z,99410.97
2019-01-12T21:56:16.891Z,99407.69
2019-01-12T21:58:45.729Z,99402.55
2019-01-12T22:01:14.415Z,99402.41
2019-01-12T22:03:43.092Z,99393.55
2019-01-12T22:06:12.211Z,99387.38
2019-01-12T22:08:40.900Z,99387.08
2019-01-12T22:11:09.589Z,99384.83
2019-01-12T22:13:38.364Z,99379.23
2019-01-12T22:16:07.049Z,99375.22
2019-01-12T22:18:35.731Z,99377.42
2019-01-12T22:21:04.549Z,99376.06
2019-01-12T22:23:33.250Z,99379.27
2019-01-12T22:26:01.942Z,99373.50
2019-01-12T22:28:30.753Z,99385.94
2019-01-12T22:30:59.434Z,99383.83
2019-01-12T22:33:28.127Z,99387.44
2019-01-12T22:35:56.903Z,99386.16
2019-01-12T22:38:25.599Z,99386.55
2019-01-12T22:40:54.277Z,99389.45
2019-01-12T22:43:24.721Z,99389.20
2019-01-12T22:45:53.537Z,99390.23
2019-01-12T22:48:22.150Z,99379.93
2019-01-12T22:50:50.858Z,99375.71
2019-01-12T22:53:19.547Z,99371.00
2019-01-12T22:55:48.234Z,99372.88
2019-01-12T22:58:16.986Z,99376.16
2019-01-12T23:00:52.014Z,99375.34
2019-01-12T23:03:20.790Z,99368.70
2019-01-12T23:05:49.504Z,99387.93
2019-01-12T23:08:18.186Z,99377.75
2019-01-12T23:10:46.866Z,99379.59
2019-01-12T23:13:15.575Z,99380.18
2019-01-12T23:15:44.259Z,99379.23
2019-01-12T23:18:12.943Z,99368.52
2019-01-12T23:20:42.377Z,99371.08
2019-01-12T23:23:11.057Z,99371.08
2019-01-12T23:25:39.744Z,99371.48
2019-01-12T23:28:08.509Z,99367.06
2019-01-12T23:30:37.197Z,99356.31
2019-01-12T23:33:05.881Z,99356.31
2019-01-12T23:35:35.041Z,99354.68
2019-01-12T23:38:04.372Z,99354.68
2019-01-12T23:40:33.058Z,99354.73
2019-01-12T23:43:01.985Z,99355.67
2019-01-12T23:45:30.669Z,99355.67
2019-01-12T23:47:59.342Z,99361.44
2019-01-12T23:50:28.030Z,99353.12
2019-01-12T23:52:56.710Z,99361.11
2019-01-12T23:55:25.396Z,99359.58
2019-01-12T23:57:54.131Z,99359.58
